Time;durP1;ratioP1;P1;durP2;ratioP2;P2;SDS_P1;SDS_P2;PMS_P1;PMS_P2;Temp;Humidity;BMP_temperature;BMP_pressure;BME280_temperature;BME280_humidity;BME280_pressure;Samples;Min_cycle;Max_cycle;Signal;HPM_P1;HPM_P2
2021/12/08 00:01:28;;;;;;;1999.90;999.90;;;;;;;-0.14;100.00;162360.94;5031983;28;20080;-63
2021/12/08 00:03:54;;;;;;;1999.90;999.90;;;;;;;-0.56;100.00;162250.22;5036867;28;20085;-63
2021/12/08 00:06:22;;;;;;;1999.90;999.90;;;;;;;-0.56;100.00;162250.22;5038392;28;20508;-63
2021/12/08 00:14:20;;;;;;;1999.90;999.90;;;;;;;0.53;100.00;162540.03;5038233;28;20457;-64
2021/12/08 00:16:46;;;;;;;1999.90;999.90;;;;;;;-0.09;100.00;162375.97;5035334;28;20037;-63
2021/12/08 00:19:13;;;;;;;1999.90;999.90;;;;;;;0.10;100.00;162426.50;5035583;28;20099;-64
2021/12/08 00:21:39;;;;;;;1999.90;999.90;;;;;;;0.44;100.00;162515.41;5039958;28;20448;-64
2021/12/08 00:24:07;;;;;;;1999.90;999.90;;;;;;;-0.07;100.00;162381.41;5032439;28;20048;-63
2021/12/08 00:26:35;;;;;;;1999.90;999.90;;;;;;;-0.16;100.00;162356.81;5039819;28;20106;-64
2021/12/08 00:29:03;;;;;;;1999.90;999.90;;;;;;;0.00;100.00;162399.22;5038619;28;20124;-64
2021/12/08 00:31:30;;;;;;;1999.90;999.90;;;;;;;0.14;100.00;162437.47;5041442;28;20044;-63
2021/12/08 00:33:57;;;;;;;1999.90;999.90;;;;;;;0.20;100.00;162452.53;5034455;28;20049;-63
2021/12/08 00:36:30;;;;;;;1999.90;999.90;;;;;;;0.73;100.00;162593.41;5035096;28;20330;-64
2021/12/08 00:38:57;;;;;;;1999.90;999.90;;;;;;;0.28;100.00;162474.41;5035430;28;20103;-63
2021/12/08 00:41:24;;;;;;;1999.90;999.90;;;;;;;0.77;100.00;162604.31;5045791;28;20046;-64
2021/12/08 00:43:50;;;;;;;1999.90;999.90;;;;;;;0.34;100.00;162490.81;5038277;28;20160;-64
2021/12/08 00:46:16;;;;;;;1999.90;999.90;;;;;;;0.59;100.00;162555.09;5037446;28;20053;-64
2021/12/08 00:48:48;;;;;;;1999.90;999.90;;;;;;;-0.52;100.00;162259.75;5037102;28;20132;-63
2021/12/08 00:51:16;;;;;;;1999.90;999.90;;;;;;;-0.21;100.00;162343.13;5037512;28;20045;-64
2021/12/08 00:53:45;;;;;;;1999.90;999.90;;;;;;;-0.94;100.00;162149.09;5043122;28;20049;-63
2021/12/08 00:56:12;;;;;;;1999.90;999.90;;;;;;;-1.30;100.00;162054.81;5031011;28;20041;-63
2021/12/08 00:58:39;;;;;;;1999.90;999.90;;;;;;;-1.07;100.00;162114.97;5042051;28;20072;-63
2021/12/08 01:01:18;;;;;;;1999.90;999.90;;;;;;;-0.05;100.00;162386.88;5036413;28;20052;-63
2021/12/08 01:03:46;;;;;;;1999.90;999.90;;;;;;;-0.04;100.00;162389.63;5039539;28;20442;-63
2021/12/08 01:06:13;;;;;;;1999.90;999.90;;;;;;;-0.17;100.00;162352.72;5041088;28;20063;-64
2021/12/08 01:08:41;;;;;;;1999.90;999.90;;;;;;;0.19;100.00;162448.41;5043019;28;20049;-64
2021/12/08 01:11:13;;;;;;;1999.90;999.90;;;;;;;-0.23;100.00;162337.69;5033721;28;20334;-64
2021/12/08 01:13:40;;;;;;;1999.90;999.90;;;;;;;-0.66;100.00;162224.22;5034437;28;20107;-63
2021/12/08 01:16:07;;;;;;;1999.90;999.90;;;;;;;-0.68;100.00;162217.44;5038153;28;20438;-65
2021/12/08 01:18:34;;;;;;;1999.90;999.90;;;;;;;-0.63;100.00;162231.06;5029430;28;20056;-64
2021/12/08 01:21:06;;;;;;;1999.90;999.90;;;;;;;-0.07;100.00;162381.41;5036913;28;20114;-64
2021/12/08 01:23:32;;;;;;;;;;;;;;;0.04;100.00;162410.13;5038946;28;20422;-64
2021/12/08 01:26:00;;;;;;;1999.90;999.90;;;;;;;-0.11;100.00;162370.47;5044216;28;20301;-65
2021/12/08 01:28:27;;;;;;;1999.90;999.90;;;;;;;0.08;100.00;162421.06;5040248;28;20442;-64
2021/12/08 01:30:55;;;;;;;1999.90;999.90;;;;;;;0.05;100.00;162411.50;5038407;28;20045;-64
2021/12/08 01:33:24;;;;;;;1999.90;999.90;;;;;;;-1.09;100.00;162109.47;5033889;28;20080;-64
2021/12/08 01:35:51;;;;;;;1999.90;999.90;;;;;;;-0.37;100.00;162302.16;5037733;28;20087;-64
2021/12/08 01:38:18;;;;;;;1999.90;999.90;;;;;;;-0.52;100.00;162261.16;5036008;28;20055;-64
2021/12/08 01:40:45;;;;;;;1999.90;999.90;;;;;;;0.05;100.00;162411.50;5043348;28;20103;-64
2021/12/08 01:43:29;;;;;;;1999.90;999.90;;;;;;;-0.11;100.00;162370.47;5040794;28;20049;-64
2021/12/08 01:46:05;;;;;;;1999.90;999.90;;;;;;;-0.27;100.00;162326.72;5036068;28;20104;-64
2021/12/08 01:48:35;;;;;;;1999.90;999.90;;;;;;;-0.85;100.00;162172.31;5039946;28;20495;-64
2021/12/08 01:51:05;;;;;;;1999.90;999.90;;;;;;;-0.57;100.00;162247.47;5037049;28;20106;-64
2021/12/08 01:53:32;;;;;;;1999.90;999.90;;;;;;;-0.63;100.00;162231.06;5034814;28;20053;-64
2021/12/08 01:55:59;;;;;;;1999.90;999.90;;;;;;;-0.13;100.00;162365.03;5030892;28;20441;-64
2021/12/08 01:58:26;;;;;;;1999.90;999.90;;;;;;;-0.17;100.00;162354.06;5039688;28;20049;-65
2021/12/08 02:00:57;;;;;;;1999.90;999.90;;;;;;;-0.34;100.00;162307.59;5043154;28;20183;-64
2021/12/08 02:03:25;;;;;;;1999.90;999.90;;;;;;;-0.94;100.00;162150.47;5044833;28;20045;-64
2021/12/08 02:05:53;;;;;;;1999.90;999.90;;;;;;;-0.84;100.00;162176.41;5048762;28;20122;-64
2021/12/08 02:08:20;;;;;;;1999.90;999.90;;;;;;;-1.46;100.00;162012.53;5044459;28;20110;-64
2021/12/08 02:10:47;;;;;;;1999.90;999.90;;;;;;;-0.89;100.00;162164.13;5043428;28;20119;-64
2021/12/08 02:13:15;;;;;;;1999.90;999.90;;;;;;;-1.09;100.00;162110.88;5037010;28;20099;-64
2021/12/08 02:15:42;;;;;;;1999.90;999.90;;;;;;;-0.65;100.00;162226.97;5038327;28;20050;-64
2021/12/08 02:18:13;;;;;;;1999.90;999.90;;;;;;;-1.02;100.00;162127.25;5040901;28;20256;-64
2021/12/08 02:20:43;;;;;;;1999.90;999.90;;;;;;;-1.20;100.00;162080.81;5046243;28;20045;-64
2021/12/08 02:23:10;;;;;;;1999.90;999.90;;;;;;;-0.50;100.00;162266.59;5041481;28;20102;-64
2021/12/08 02:25:37;;;;;;;1999.90;999.90;;;;;;;-0.98;100.00;162138.16;5041352;28;20041;-64
2021/12/08 02:28:05;;;;;;;1999.90;999.90;;;;;;;-0.71;100.00;162211.94;5045964;28;20083;-64
2021/12/08 02:30:41;;;;;;;1999.90;999.90;;;;;;;-1.08;100.00;162113.56;5037890;28;20084;-65
2021/12/08 02:47:11;;;;;;;1999.90;999.90;;;;;;;-1.50;100.00;162000.25;5042505;28;20073;-64
2021/12/08 02:49:39;;;;;;;1999.90;999.90;;;;;;;-1.30;100.00;162053.47;5041885;28;20061;-65
2021/12/08 02:52:08;;;;;;;1999.90;999.90;;;;;;;-1.31;100.00;162050.72;5048797;28;20106;-65
2021/12/08 02:54:38;;;;;;;1999.90;999.90;;;;;;;-1.08;100.00;162112.22;5041677;28;20045;-65
2021/12/08 02:57:05;;;;;;;1999.90;999.90;;;;;;;-1.21;100.00;162078.06;5041495;28;20073;-65
2021/12/08 02:59:32;;;;;;;1999.90;999.90;;;;;;;-1.47;100.00;162009.78;5047125;28;20080;-65
2021/12/08 03:02:00;;;;;;;1999.90;999.90;;;;;;;-1.04;100.00;162123.16;5042170;28;20943;-65
2021/12/08 03:04:26;;;;;;;1999.90;999.90;;;;;;;-1.40;100.00;162027.50;5042326;28;20045;-65
2021/12/08 03:06:54;;;;;;;1999.90;999.90;;;;;;;-1.87;100.00;161903.28;5043121;28;20046;-65
2021/12/08 03:09:20;;;;;;;1999.90;999.90;;;;;;;-1.39;100.00;162030.25;5044485;28;20053;-66
2021/12/08 03:11:49;;;;;;;1999.90;999.90;;;;;;;-1.12;100.00;162102.63;5047068;28;20247;-66
2021/12/08 03:14:17;;;;;;;1999.90;999.90;;;;;;;-0.94;100.00;162150.47;5033590;28;20137;-65
2021/12/08 03:16:51;;;;;;;1999.90;999.90;;;;;;;-1.07;100.00;162116.31;5037091;28;20045;-65
2021/12/08 03:19:21;;;;;;;1999.90;999.90;;;;;;;-1.29;100.00;162056.22;5044239;28;20468;-65
2021/12/08 03:21:48;;;;;;;1999.90;999.90;;;;;;;-1.33;100.00;162045.28;5035950;28;20062;-64
2021/12/08 03:24:25;;;;;;;1999.90;999.90;;;;;;;-1.01;100.00;162129.94;5037160;28;20077;-65
2021/12/08 03:27:08;;;;;;;1999.90;999.90;;;;;;;-0.89;100.00;162162.78;5036005;28;20182;-65
2021/12/08 03:29:53;;;;;;;1999.90;999.90;;;;;;;-1.15;100.00;162093.09;5039879;28;20493;-65
2021/12/08 03:32:35;;;;;;;1999.90;999.90;;;;;;;-1.68;100.00;161952.41;5044280;28;20320;-65
2021/12/08 03:35:05;;;;;;;1999.90;999.90;;;;;;;-1.84;100.00;161910.13;5043987;28;20392;-65
2021/12/08 03:37:36;;;;;;;1999.90;999.90;;;;;;;-2.15;100.00;161828.19;5044767;28;20106;-65
2021/12/08 03:40:23;;;;;;;1999.90;999.90;;;;;;;-1.60;100.00;161975.63;5039950;28;20115;-65
2021/12/08 03:42:52;;;;;;;1999.90;999.90;;;;;;;-1.17;100.00;162089.00;5037086;28;20049;-64
2021/12/08 03:45:29;;;;;;;1999.90;999.90;;;;;;;-1.00;100.00;162134.03;5040035;28;20054;-65
2021/12/08 03:48:02;;;;;;;1999.90;999.90;;;;;;;-1.62;100.00;161970.19;5034316;28;20125;-65
2021/12/08 03:50:34;;;;;;;1999.90;999.90;;;;;;;-0.79;100.00;162190.09;5037119;28;20481;-65
2021/12/08 03:53:01;;;;;;;1999.90;999.90;;;;;;;-0.59;100.00;162242.03;5037103;28;20350;-65
2021/12/08 03:55:27;;;;;;;1999.90;999.90;;;;;;;-1.26;100.00;162064.41;5044940;28;20045;-65
2021/12/08 03:57:54;;;;;;;1999.90;999.90;;;;;;;-1.33;100.00;162045.28;5043074;28;20049;-65
2021/12/08 04:00:25;;;;;;;1999.90;999.90;;;;;;;-1.71;100.00;161944.22;5041006;28;20084;-65
2021/12/08 04:02:52;;;;;;;1999.90;999.90;;;;;;;-1.83;100.00;161914.22;5038426;28;20046;-65
2021/12/08 04:05:21;;;;;;;1999.90;999.90;;;;;;;-1.57;100.00;161981.13;5046510;28;20440;-65
2021/12/08 04:07:51;;;;;;;1999.90;999.90;;;;;;;-1.93;100.00;161885.56;5044638;28;20210;-65
2021/12/08 04:10:20;;;;;;;1999.90;999.90;;;;;;;-2.06;100.00;161851.41;5040261;28;20159;-65
2021/12/08 04:12:51;;;;;;;1999.90;999.90;;;;;;;-1.91;100.00;161891.00;5046247;28;20109;-65
2021/12/08 04:15:21;;;;;;;1999.90;999.90;;;;;;;-1.21;100.00;162078.06;5040079;28;20103;-65
2021/12/08 04:17:50;;;;;;;1999.90;999.90;;;;;;;-1.85;100.00;161907.38;5039041;28;20100;-64
2021/12/08 04:20:35;;;;;;;1999.90;999.90;;;;;;;-1.40;100.00;162026.16;5036226;28;20049;-65
2021/12/08 04:23:04;;;;;;;1999.90;999.90;;;;;;;-2.02;100.00;161862.34;5037751;28;20418;-64
2021/12/08 04:25:36;;;;;;;1999.90;999.90;;;;;;;-1.78;100.00;161927.84;5038249;28;20353;-65
2021/12/08 04:28:08;;;;;;;1999.90;999.90;;;;;;;-1.27;100.00;162061.66;5040194;28;20077;-65
2021/12/08 04:30:42;;;;;;;1999.90;999.90;;;;;;;-1.30;100.00;162053.47;5040174;28;20488;-65
2021/12/08 04:33:09;;;;;;;1999.90;999.90;;;;;;;-0.73;100.00;162206.50;5040512;28;20504;-65
2021/12/08 04:35:38;;;;;;;1999.90;999.90;;;;;;;-0.97;100.00;162142.28;5042865;28;20433;-65
2021/12/08 04:38:09;;;;;;;1999.90;999.90;;;;;;;-0.50;100.00;162266.59;5032724;28;20525;-65
2021/12/08 04:46:48;;;;;;;1999.90;999.90;;;;;;;-1.90;100.00;161895.09;5043343;28;20338;-65
2021/12/08 05:03:39;;;;;;;1999.90;999.90;;;;;;;-2.08;100.00;161845.91;5045374;28;20061;-65
2021/12/08 05:10:38;;;;;;;1999.90;999.90;;;;;;;-2.37;100.00;161769.50;5039479;28;20194;-65
2021/12/08 05:13:07;;;;;;;1999.90;999.90;;;;;;;-2.03;100.00;161859.59;5036858;28;20056;-65
2021/12/08 05:15:41;;;;;;;1999.90;999.90;;;;;;;-2.01;100.00;161866.44;5039112;28;20407;-65
2021/12/08 05:18:14;;;;;;;1999.90;999.90;;;;;;;-2.12;100.00;161836.38;5045024;28;20631;-66
2021/12/08 05:20:48;;;;;;;1999.90;999.90;;;;;;;-1.54;100.00;161990.66;5043763;28;20570;-65
2021/12/08 05:23:22;;;;;;;1999.90;999.90;;;;;;;-1.26;100.00;162064.41;5044139;28;20242;-66
2021/12/08 05:25:51;;;;;;;1999.90;999.90;;;;;;;-1.48;100.00;162005.69;5045802;28;20091;-66
2021/12/08 05:28:22;;;;;;;1999.90;999.90;;;;;;;-1.73;100.00;161938.78;5040580;28;20103;-65
2021/12/08 05:30:54;;;;;;;1999.90;999.90;;;;;;;-1.82;100.00;161916.91;5042940;28;20049;-65
2021/12/08 05:33:23;;;;;;;1999.90;999.90;;;;;;;-1.58;100.00;161979.72;5045388;28;20055;-65
2021/12/08 05:35:50;;;;;;;1999.90;999.90;;;;;;;-1.61;100.00;161971.53;5047026;28;20045;-65
2021/12/08 05:38:18;;;;;;;1999.90;999.90;;;;;;;-2.26;100.00;161799.56;5045467;28;20041;-65
2021/12/08 05:40:55;;;;;;;1999.90;999.90;;;;;;;-1.74;100.00;161936.03;5037413;28;20077;-65
2021/12/08 05:43:22;;;;;;;1999.90;999.90;;;;;;;-1.24;100.00;162069.84;5043803;28;20072;-65
2021/12/08 05:45:50;;;;;;;1999.90;999.90;;;;;;;-0.92;100.00;162155.94;5040970;28;20057;-65
2021/12/08 05:48:19;;;;;;;1999.90;999.90;;;;;;;-1.07;100.00;162116.31;5037493;28;20385;-66
2021/12/08 05:50:54;;;;;;;1999.90;999.90;;;;;;;-2.22;100.00;161809.09;5036050;28;20049;-65
2021/12/08 05:53:22;;;;;;;1999.90;999.90;;;;;;;-1.44;100.00;162016.63;5037608;28;20061;-65
2021/12/08 05:55:50;;;;;;;1999.90;999.90;;;;;;;-1.92;100.00;161889.66;5039002;28;20088;-66
2021/12/08 05:58:19;;;;;;;1999.90;999.90;;;;;;;-1.97;100.00;161875.97;5047218;28;20080;-65
2021/12/08 06:00:56;;;;;;;1999.90;999.90;;;;;;;-1.81;100.00;161919.66;5046207;28;20495;-66
2021/12/08 06:03:23;;;;;;;1999.90;999.90;;;;;;;-2.28;100.00;161792.72;5049122;28;20045;-66
2021/12/08 06:05:52;;;;;;;1999.90;999.90;;;;;;;-2.57;100.00;161717.66;5035381;28;20049;-66
2021/12/08 06:08:19;;;;;;;1999.90;999.90;;;;;;;-1.88;100.00;161899.19;5039068;28;20142;-66
2021/12/08 06:10:47;;;;;;;1999.90;999.90;;;;;;;-2.15;100.00;161829.53;5042359;28;20433;-65
2021/12/08 06:13:16;;;;;;;1999.90;999.90;;;;;;;-2.58;100.00;161714.91;5047203;28;20075;-65
2021/12/08 06:15:46;;;;;;;1999.90;999.90;;;;;;;-2.31;100.00;161785.88;5045677;28;20418;-64
2021/12/08 06:18:13;;;;;;;1999.90;999.90;;;;;;;-2.37;100.00;161769.50;5049644;28;20095;-64
2021/12/08 06:20:40;;;;;;;1999.90;999.90;;;;;;;-2.75;100.00;161668.56;5040361;28;20084;-65
2021/12/08 06:23:08;;;;;;;1999.90;999.90;;;;;;;-2.55;100.00;161723.09;5045428;28;20111;-64
2021/12/08 06:25:37;;;;;;;1999.90;999.90;;;;;;;-2.66;100.00;161693.09;5040060;28;20449;-65
2021/12/08 06:28:04;;;;;;;1999.90;999.90;;;;;;;-2.43;100.00;161753.13;5033469;28;20164;-64
2021/12/08 06:30:33;;;;;;;1999.90;999.90;;;;;;;-2.49;100.00;161739.50;5040440;28;20046;-65
2021/12/08 06:33:01;;;;;;;1999.90;999.90;;;;;;;-2.22;100.00;161809.09;5044148;28;20381;-64
2021/12/08 06:35:37;;;;;;;1999.90;999.90;;;;;;;-2.45;100.00;161749.03;5042916;28;20049;-64
2021/12/08 06:38:07;;;;;;;1999.90;999.90;;;;;;;-2.50;100.00;161736.78;5043745;28;20185;-64
2021/12/08 06:40:41;;;;;;;1999.90;999.90;;;;;;;-2.27;100.00;161796.81;5045898;28;20095;-64
2021/12/08 06:43:11;;;;;;;1999.90;999.90;;;;;;;-2.11;100.00;161839.13;5036352;28;20410;-65
2021/12/08 06:45:44;;;;;;;1999.90;999.90;;;;;;;-1.96;100.00;161880.06;5046653;28;20041;-65
2021/12/08 06:48:17;;;;;;;1999.90;999.90;;;;;;;-2.35;100.00;161775.00;5040086;28;20140;-65
2021/12/08 06:50:54;;;;;;;1999.90;999.90;;;;;;;-1.89;100.00;161897.84;5033421;28;20465;-65
2021/12/08 06:53:20;;;;;;;1999.90;999.90;;;;;;;-1.45;100.00;162013.88;5040037;28;20400;-65
2021/12/08 06:55:52;;;;;;;1999.90;999.90;;;;;;;-1.43;100.00;162019.31;5038949;28;20126;-65
2021/12/08 06:58:25;;;;;;;1999.90;999.90;;;;;;;-1.61;100.00;161972.94;5046544;28;20056;-65
2021/12/08 07:01:33;;;;;;;1999.90;999.90;;;;;;;-2.21;100.00;161813.19;5040528;28;20241;-65
2021/12/08 07:06:56;;;;;;;1999.90;999.90;;;;;;;-1.95;100.00;161881.41;5038945;28;20184;-65
2021/12/08 07:09:40;;;;;;;1999.90;999.90;;;;;;;-1.91;100.00;161891.00;5038692;28;20313;-65
2021/12/08 07:12:15;;;;;;;1999.90;999.90;;;;;;;-1.44;100.00;162017.97;5042908;28;20058;-65
2021/12/08 07:14:52;;;;;;;1999.90;999.90;;;;;;;-2.16;100.00;161825.44;5044484;28;20516;-65
2021/12/08 07:17:22;;;;;;;1999.90;999.90;;;;;;;-1.42;100.00;162023.41;5044237;28;20092;-65
2021/12/08 07:20:02;;;;;;;1999.90;999.90;;;;;;;-1.39;100.00;162028.91;5040018;28;20428;-65
2021/12/08 07:22:33;;;;;;;1999.90;999.90;;;;;;;-1.26;100.00;162064.41;5034577;28;20149;-65
2021/12/08 07:25:02;;;;;;;1999.90;999.90;;;;;;;-1.66;100.00;161959.25;5043099;28;20049;-65
2021/12/08 07:27:33;;;;;;;1999.90;999.90;;;;;;;-0.98;100.00;162138.16;5040160;28;20084;-65
2021/12/08 07:30:07;;;;;;;1999.90;999.90;;;;;;;-2.06;100.00;161852.75;5037039;28;20421;-65
2021/12/08 07:32:36;;;;;;;1999.90;999.90;;;;;;;-2.37;100.00;161770.84;5039779;28;20054;-65
2021/12/08 07:35:22;;;;;;;1999.90;999.90;;;;;;;-2.19;100.00;161818.66;5044140;28;20080;-64
2021/12/08 07:37:49;;;;;;;1999.90;999.90;;;;;;;-2.46;100.00;161744.94;5045045;28;20088;-65
2021/12/08 07:40:24;;;;;;;1999.90;999.90;;;;;;;-2.27;100.00;161796.81;5037828;28;20450;-65
2021/12/08 07:42:59;;;;;;;1999.90;999.90;;;;;;;-2.16;100.00;161826.84;5040023;28;20346;-65
2021/12/08 07:45:32;;;;;;;1999.90;999.90;;;;;;;-2.53;100.00;161727.19;5043613;28;20110;-65
2021/12/08 07:48:01;;;;;;;1999.90;999.90;;;;;;;-2.23;100.00;161806.34;5045690;28;20098;-65
2021/12/08 07:50:41;;;;;;;1999.90;999.90;;;;;;;-1.49;100.00;162004.34;5036966;28;20053;-65
2021/12/08 07:53:10;;;;;;;1999.90;999.90;;;;;;;-1.85;100.00;161907.38;5043448;28;20108;-65
2021/12/08 07:55:42;;;;;;;1999.90;999.90;;;;;;;-2.22;100.00;161810.47;5043278;28;20067;-65
2021/12/08 07:58:10;;;;;;;1999.90;999.90;;;;;;;-1.92;100.00;161889.66;5035166;28;20095;-65
2021/12/08 08:00:45;;;;;;;1999.90;999.90;;;;;;;-2.33;100.00;161780.44;5036550;28;20057;-64
2021/12/08 08:03:14;;;;;;;1999.90;999.90;;;;;;;-2.00;100.00;161869.13;5037586;28;20156;-66
2021/12/08 08:05:42;;;;;;;1999.90;999.90;;;;;;;-2.01;100.00;161865.03;5044994;28;20441;-65
2021/12/08 08:08:13;;;;;;;1999.90;999.90;;;;;;;-1.82;100.00;161915.56;5039333;28;20049;-65
2021/12/08 08:10:58;;;;;;;1999.90;999.90;;;;;;;-1.45;100.00;162015.22;5046298;28;20448;-66
2021/12/08 08:13:26;;;;;;;1999.90;999.90;;;;;;;-2.14;100.00;161832.28;5031046;28;20111;-65
2021/12/08 08:16:04;;;;;;;1999.90;999.90;;;;;;;-2.39;100.00;161765.41;5040017;28;20052;-64
2021/12/08 08:18:35;;;;;;;1999.90;999.90;;;;;;;-2.27;100.00;161796.81;5037209;28;20056;-65
2021/12/08 08:21:14;;;;;;;1999.90;999.90;;;;;;;-1.21;100.00;162078.06;5031733;28;20069;-65
2021/12/08 08:23:42;;;;;;;1999.90;999.90;;;;;;;-1.24;100.00;162069.84;5048903;28;20053;-66
2021/12/08 08:26:10;;;;;;;1999.90;999.90;;;;;;;-2.22;100.00;161810.47;5040186;28;20072;-65
2021/12/08 08:28:38;;;;;;;1999.90;999.90;;;;;;;-1.50;100.00;162000.25;5039313;28;20060;-64
2021/12/08 08:31:14;;;;;;;1999.90;999.90;;;;;;;-1.56;100.00;161985.22;5037089;28;20049;-65
2021/12/08 08:33:42;;;;;;;1999.90;999.90;;;;;;;-1.15;100.00;162093.09;5035242;28;20053;-65
2021/12/08 08:36:16;;;;;;;1999.90;999.90;;;;;;;-1.78;100.00;161926.50;5034730;28;20409;-65
2021/12/08 08:38:50;;;;;;;1999.90;999.90;;;;;;;-1.12;100.00;162101.28;5035069;28;20132;-66
2021/12/08 08:41:26;;;;;;;1999.90;999.90;;;;;;;-1.05;100.00;162119.06;5039943;28;20052;-66
2021/12/08 08:43:56;;;;;;;1999.90;999.90;;;;;;;-0.97;100.00;162140.88;5040496;28;20045;-65
2021/12/08 08:46:28;;;;;;;1999.90;999.90;;;;;;;-1.22;100.00;162075.34;5035053;28;20049;-65
2021/12/08 08:49:01;;;;;;;1999.90;999.90;;;;;;;-1.47;100.00;162008.44;5036048;28;20045;-65
2021/12/08 08:52:00;;;;;;;1999.90;999.90;;;;;;;-1.35;100.00;162041.19;5041133;28;20049;-65
2021/12/08 08:54:32;;;;;;;1999.90;999.90;;;;;;;-1.87;100.00;161903.28;5046158;28;20446;-65
2021/12/08 08:57:12;;;;;;;1999.90;999.90;;;;;;;-1.99;100.00;161870.53;5047313;28;20076;-65
2021/12/08 08:59:45;;;;;;;1999.90;999.90;;;;;;;-1.82;100.00;161916.91;5069774;28;20057;-65
2021/12/08 09:02:20;;;;;;;1999.90;999.90;;;;;;;-1.22;100.00;162073.94;5035917;28;20192;-65
2021/12/08 09:04:54;;;;;;;1999.90;999.90;;;;;;;-0.78;100.00;162192.81;5038923;28;20041;-66
2021/12/08 09:07:26;;;;;;;1999.90;999.90;;;;;;;-0.72;100.00;162209.19;5041405;28;20066;-66
2021/12/08 09:10:00;;;;;;;1999.90;999.90;;;;;;;-1.31;100.00;162052.13;5042577;28;20154;-66
2021/12/08 09:12:38;;;;;;;1999.90;999.90;;;;;;;-1.53;100.00;161993.41;5038016;28;20049;-65
2021/12/08 09:15:10;;;;;;;1999.90;999.90;;;;;;;-1.09;100.00;162110.88;5038203;28;20153;-66
2021/12/08 09:17:51;;;;;;;1999.90;999.90;;;;;;;-0.57;100.00;162248.81;5043047;28;20119;-66
2021/12/08 09:20:21;;;;;;;1999.90;999.90;;;;;;;-0.87;100.00;162168.22;5040663;28;20258;-66
2021/12/08 09:22:57;;;;;;;1999.90;999.90;;;;;;;-0.75;100.00;162199.66;5031776;28;20057;-67
2021/12/08 09:25:29;;;;;;;1999.90;999.90;;;;;;;-0.63;100.00;162231.06;5039260;28;20401;-66
2021/12/08 09:28:03;;;;;;;1999.90;999.90;;;;;;;-0.86;100.00;162169.56;5038160;28;20095;-67
2021/12/08 09:31:03;;;;;;;1999.90;999.90;;;;;;;-0.76;100.00;162198.31;5035598;28;20095;-66
2021/12/08 09:33:39;;;;;;;1999.90;999.90;;;;;;;-0.97;100.00;162140.88;5031314;28;20140;-67
2021/12/08 09:36:13;;;;;;;1999.90;999.90;;;;;;;-1.27;100.00;162063.00;5039574;28;20302;-67
2021/12/08 09:38:44;;;;;;;1999.90;999.90;;;;;;;-0.84;100.00;162176.41;5036489;28;20141;-66
2021/12/08 09:41:19;;;;;;;1999.90;999.90;;;;;;;-1.75;100.00;161933.34;5045352;28;20362;-68
2021/12/08 09:43:51;;;;;;;1999.90;999.90;;;;;;;-1.52;100.00;161996.16;5029936;28;20085;-66
2021/12/08 09:46:26;;;;;;;1999.90;999.90;;;;;;;-1.13;100.00;162098.53;5042210;28;20416;-67
2021/12/08 09:48:59;;;;;;;1999.90;999.90;;;;;;;-1.83;100.00;161914.22;5033592;28;20099;-67
2021/12/08 09:51:28;;;;;;;1999.90;999.90;;;;;;;-1.56;100.00;161985.22;5045559;28;20433;-67
2021/12/08 09:53:55;;;;;;;1999.90;999.90;;;;;;;-1.37;100.00;162035.75;5043477;28;20056;-67
2021/12/08 09:56:24;;;;;;;1999.90;999.90;;;;;;;-1.23;100.00;162072.59;5043118;28;20053;-67
2021/12/08 09:58:50;;;;;;;1999.90;999.90;;;;;;;-0.74;100.00;162202.41;5034533;28;20102;-67
2021/12/08 10:01:20;;;;;;;1999.90;999.90;;;;;;;-0.58;100.00;162244.72;5033228;28;20049;-66
2021/12/08 10:03:50;;;;;;;1999.90;999.90;;;;;;;-0.35;100.00;162306.25;5039985;28;20426;-67
2021/12/08 10:06:18;;;;;;;1999.90;999.90;;;;;;;-0.58;100.00;162244.72;5044773;28;20079;-66
2021/12/08 10:08:47;;;;;;;1999.90;999.90;;;;;;;-1.13;100.00;162099.94;5035845;28;20421;-66
2021/12/08 10:11:15;;;;;;;1999.90;999.90;;;;;;;-1.19;100.00;162082.16;5034973;28;20527;-66
2021/12/08 10:13:44;;;;;;;1999.90;999.90;;;;;;;-0.94;100.00;162149.09;5039378;28;20041;-67
2021/12/08 10:16:12;;;;;;;1999.90;999.90;;;;;;;-1.32;100.00;162048.03;5042973;28;20109;-66
2021/12/08 10:18:40;;;;;;;1999.90;999.90;;;;;;;-1.01;100.00;162129.94;5043764;28;20051;-67
2021/12/08 10:21:07;;;;;;;1999.90;999.90;;;;;;;-1.01;100.00;162129.94;5039631;28;20110;-67
2021/12/08 10:23:39;;;;;;;1999.90;999.90;;;;;;;-1.24;100.00;162069.84;5040835;28;20045;-66
2021/12/08 10:26:06;;;;;;;1999.90;999.90;;;;;;;-1.74;100.00;161936.03;5040550;28;20071;-66
2021/12/08 10:28:38;;;;;;;1999.90;999.90;;;;;;;-1.14;100.00;162097.19;5044618;28;20121;-66
2021/12/08 10:31:13;;;;;;;1999.90;999.90;;;;;;;-0.99;100.00;162135.44;5035622;28;20052;-67
2021/12/08 10:36:46;;;;;;;1999.90;999.90;;;;;;;-0.72;100.00;162207.84;5042101;28;20429;-68
2021/12/08 10:39:15;;;;;;;1999.90;999.90;;;;;;;-0.84;100.00;162175.06;5046789;28;20041;-67
2021/12/08 10:42:17;;;;;;;1999.90;999.90;;;;;;;-0.89;100.00;162164.13;5037584;28;20378;-67
2021/12/08 10:45:15;;;;;;;;;;;;;;;0.21;100.00;162453.88;5045836;28;20045;-67
2021/12/08 10:47:51;;;;;;;1999.90;999.90;;;;;;;-0.03;99.38;162390.97;5041145;28;19964;-67
2021/12/08 10:56:19;;;;;;;1999.90;999.90;;;;;;;-0.66;100.00;162222.88;5036219;28;20084;-68
2021/12/08 10:58:50;;;;;;;1999.90;999.90;;;;;;;-0.96;100.00;162143.63;5044928;28;20056;-67
2021/12/08 11:01:21;;;;;;;1999.90;999.90;;;;;;;-1.02;100.00;162128.59;5040495;28;20049;-67
2021/12/08 11:03:57;;;;;;;1999.90;999.90;;;;;;;-0.53;100.00;162258.41;5039717;28;20391;-68
2021/12/08 11:06:29;;;;;;;1999.90;999.90;;;;;;;0.39;99.28;162501.72;5043078;28;20079;-68
2021/12/08 11:08:57;;;;;;;1999.90;999.90;;;;;;;1.16;96.96;162706.91;5040375;28;20048;-68
2021/12/08 11:11:28;;;;;;;1999.90;999.90;;;;;;;0.02;99.80;162403.31;5040234;28;20103;-66
2021/12/08 11:13:59;;;;;;;1999.90;999.90;;;;;;;-0.40;100.00;162293.94;5041995;28;20150;-66
2021/12/08 11:16:33;;;;;;;1999.90;999.90;;;;;;;-0.63;100.00;162232.44;5045054;28;20045;-67
2021/12/08 11:19:14;;;;;;;1999.90;999.90;;;;;;;-0.91;100.00;162157.28;5039060;28;20121;-66
2021/12/08 11:21:47;;;;;;;1999.90;999.90;;;;;;;-0.28;100.00;162324.00;5041220;28;20137;-67
2021/12/08 11:24:31;;;;;;;1999.90;999.90;;;;;;;0.28;100.00;162474.41;5040514;28;20053;-67
2021/12/08 11:26:59;;;;;;;1999.90;999.90;;;;;;;0.57;98.50;162550.97;5045176;28;20057;-67
2021/12/08 11:29:33;;;;;;;1999.90;999.90;;;;;;;0.59;96.73;162556.44;5065526;28;20060;-67
2021/12/08 11:32:09;;;;;;;1999.90;999.90;;;;;;;0.79;96.23;162609.81;5036618;28;20061;-67
2021/12/08 11:34:46;;;;;;;1999.90;999.90;;;;;;;0.00;100.00;162399.22;5035725;28;20073;-67
2021/12/08 11:37:32;;;;;;;1999.90;999.90;;;;;;;-0.83;100.00;162179.16;5041365;28;20058;-67
2021/12/08 11:40:01;;;;;;;1999.90;999.90;;;;;;;-0.29;100.00;162322.63;5036230;28;20064;-67
2021/12/08 11:42:35;;;;;;;1999.90;999.90;;;;;;;0.15;99.92;162438.88;5038264;28;20128;-67
2021/12/08 11:45:12;;;;;;;1999.90;999.90;;;;;;;-0.54;100.00;162257.06;5040315;28;20377;-67
2021/12/08 11:47:38;;;;;;;1999.90;999.90;;;;;;;-1.29;100.00;162057.56;5052057;28;20056;-66
2021/12/08 11:50:12;;;;;;;1999.90;999.90;;;;;;;-0.76;100.00;162198.31;5037973;28;20049;-66
2021/12/08 11:52:39;;;;;;;1999.90;999.90;;;;;;;-1.04;100.00;162121.75;5040603;28;20060;-66
2021/12/08 11:55:13;;;;;;;1999.90;999.90;;;;;;;-0.82;100.00;162181.91;5041598;28;20122;-66
2021/12/08 11:57:51;;;;;;;1999.90;999.90;;;;;;;-0.24;100.00;162334.94;5042529;28;20184;-66